Time;durP1;ratioP1;P1;durP2;ratioP2;P2;SDS_P1;SDS_P2;PMS_P1;PMS_P2;Temp;Humidity;BMP_temperature;BMP_pressure;BME280_temperature;BME280_humidity;BME280_pressure;Samples;Min_cycle;Max_cycle;Signal;HPM_P1;HPM_P2
2022/08/23 00:02:41;;;;;;;3.22;2.05;;;17.50;99.90;;;;;;10193996;29;20203;-85
2022/08/23 00:07:44;;;;;;;7.68;2.03;;;17.70;99.90;;;;;;10211570;29;20215;-85
2022/08/23 00:12:47;;;;;;;4.22;3.05;;;17.70;99.90;;;;;;10193937;29;20255;-85
2022/08/23 00:17:50;;;;;;;4.90;2.67;;;17.60;99.90;;;;;;10211565;29;20242;-85
2022/08/23 00:22:52;;;;;;;6.57;2.55;;;17.70;99.90;;;;;;10210027;29;20262;-85
2022/08/23 00:27:55;;;;;;;3.40;2.38;;;17.60;99.90;;;;;;10211313;29;20204;-85
2022/08/23 00:32:57;;;;;;;5.00;2.22;;;17.50;99.90;;;;;;10193136;29;20266;-85
2022/08/23 00:38:00;;;;;;;6.45;2.63;;;17.50;99.90;;;;;;10192790;29;20645;-85
2022/08/23 00:48:50;;;;;;;6.70;2.28;;;17.50;99.90;;;;;;10208374;29;20727;-84
2022/08/23 00:54:00;;;;;;;3.90;2.63;;;17.40;99.90;;;;;;10192954;29;20266;-85
2022/08/23 00:59:02;;;;;;;6.50;2.53;;;17.50;99.90;;;;;;10192673;29;20285;-85
2022/08/23 01:04:05;;;;;;;4.68;2.80;;;17.40;99.90;;;;;;10177543;29;20207;-85
2022/08/23 01:09:14;;;;;;;5.03;2.47;;;17.40;99.90;;;;;;10192609;29;20301;-85
2022/08/23 01:14:24;;;;;;;4.75;2.47;;;17.40;99.90;;;;;;10191948;29;20259;-85
2022/08/23 01:19:39;;;;;;;9.85;3.45;;;17.50;99.90;;;;;;10190366;29;20235;-85
2022/08/23 01:24:44;;;;;;;7.40;4.05;;;;;;;;;;10191736;29;20234;-85
2022/08/23 01:30:12;;;;;;;5.80;3.03;;;16.80;99.90;;;;;;10158270;29;20701;-85
2022/08/23 01:35:16;;;;;;;7.00;3.15;;;16.60;99.90;;;;;;10164563;29;20263;-85
2022/08/23 01:40:19;;;;;;;12.25;3.85;;;16.50;99.90;;;;;;10190821;29;20203;-85
2022/08/23 01:45:23;;;;;;;6.33;3.30;;;16.40;99.90;;;;;;10190794;29;20247;-86
2022/08/23 01:50:27;;;;;;;3.10;2.80;;;16.50;99.90;;;;;;10175061;29;20285;-86
2022/08/23 01:55:32;;;;;;;5.90;3.20;;;16.60;99.90;;;;;;10190971;29;20342;-85
2022/08/23 02:00:38;;;;;;;3.92;3.13;;;16.50;99.90;;;;;;10171208;29;20270;-86
2022/08/23 02:05:41;;;;;;;5.70;3.40;;;16.40;99.90;;;;;;10190866;29;20211;-86
2022/08/23 02:10:45;;;;;;;6.05;3.90;;;16.50;99.90;;;;;;10191086;29;20211;-86
2022/08/23 02:15:50;;;;;;;9.07;4.60;;;16.40;99.90;;;;;;10163710;29;20258;-86
2022/08/23 02:20:53;;;;;;;5.65;3.28;;;16.40;99.90;;;;;;10175540;29;20235;-85
2022/08/23 02:25:56;;;;;;;5.43;3.93;;;16.40;99.90;;;;;;10189519;29;20246;-85
2022/08/23 02:30:58;;;;;;;5.70;3.30;;;16.40;99.90;;;;;;10190491;29;20631;-86
2022/08/23 02:36:01;;;;;;;5.70;3.43;;;16.40;99.90;;;;;;10194767;29;20301;-86
2022/08/23 02:41:04;;;;;;;7.60;3.53;;;16.40;99.90;;;;;;10197091;29;20250;-86
2022/08/23 02:46:07;;;;;;;6.53;4.60;;;16.40;99.90;;;;;;10198004;29;20683;-86
2022/08/23 02:51:10;;;;;;;5.80;3.73;;;16.40;99.90;;;;;;10197059;29;20262;-85
2022/08/23 02:56:13;;;;;;;4.57;4.17;;;16.40;99.90;;;;;;10197463;29;20254;-85
2022/08/23 03:01:30;;;;;;;6.77;4.13;;;16.40;99.90;;;;;;10195311;29;20239;-86
2022/08/23 03:06:42;;;;;;;6.37;3.80;;;16.50;99.90;;;;;;10197428;29;20210;-85
2022/08/23 03:11:48;;;;;;;6.93;4.15;;;16.40;99.90;;;;;;10197078;29;20274;-85
2022/08/23 03:16:53;;;;;;;6.23;3.93;;;16.50;99.90;;;;;;10196839;29;20286;-85
2022/08/23 03:21:59;;;;;;;5.20;3.38;;;16.50;99.90;;;;;;10195716;29;20238;-85
2022/08/23 03:27:05;;;;;;;5.78;4.07;;;16.60;99.90;;;;;;10195776;29;20242;-85
2022/08/23 03:32:08;;;;;;;6.10;4.68;;;16.50;99.90;;;;;;10195884;29;20842;-85
2022/08/23 03:37:12;;;;;;;7.72;3.97;;;16.50;99.90;;;;;;10194518;29;20333;-85
2022/08/23 03:42:15;;;;;;;6.95;4.70;;;16.50;99.90;;;;;;10195985;29;20305;-85
2022/08/23 03:47:22;;;;;;;7.87;4.23;;;16.50;99.90;;;;;;10195123;29;20297;-85
2022/08/23 03:52:26;;;;;;;7.67;3.47;;;16.50;99.90;;;;;;10193559;29;20255;-85
2022/08/23 03:57:29;;;;;;;7.72;3.95;;;16.50;99.90;;;;;;10195316;29;20239;-85
2022/08/23 04:02:31;;;;;;;4.90;4.30;;;16.50;99.90;;;;;;10194580;29;20238;-85
2022/08/23 04:07:34;;;;;;;6.90;4.63;;;16.60;99.90;;;;;;10191613;29;20215;-85
2022/08/23 04:12:38;;;;;;;8.63;4.65;;;16.70;99.90;;;;;;10192010;29;20310;-85
2022/08/23 04:17:46;;;;;;;5.93;3.55;;;16.80;99.90;;;;;;10194589;29;20238;-85
2022/08/23 04:22:52;;;;;;;9.47;4.03;;;16.80;99.90;;;;;;10211193;29;20277;-85
2022/08/23 04:27:55;;;;;;;9.02;4.00;;;16.90;99.90;;;;;;10193832;29;20207;-85
2022/08/23 04:32:59;;;;;;;4.93;3.47;;;17.00;99.90;;;;;;10193959;29;20321;-85
2022/08/23 04:38:04;;;;;;;4.28;3.83;;;17.10;99.90;;;;;;10147614;29;20299;-85
2022/08/23 04:43:29;;;;;;;7.10;4.03;;;17.30;99.90;;;;;;10128441;29;20255;-85
2022/08/23 04:48:32;;;;;;;6.70;4.85;;;17.30;99.90;;;;;;10096512;29;20217;-85
2022/08/23 04:53:35;;;;;;;7.05;4.28;;;17.40;99.90;;;;;;10125216;29;20311;-85
2022/08/23 04:58:57;;;;;;;4.63;3.83;;;17.30;99.90;;;;;;10128950;29;20298;-85
2022/08/23 05:04:03;;;;;;;4.35;3.67;;;17.50;99.90;;;;;;10106248;29;20265;-86
2022/08/23 05:09:07;;;;;;;5.93;4.03;;;17.90;99.90;;;;;;10108570;29;20261;-85
2022/08/23 05:14:11;;;;;;;4.70;3.72;;;17.70;99.90;;;;;;10116705;29;20318;-85
2022/08/23 05:19:14;;;;;;;8.73;3.95;;;17.60;99.90;;;;;;10121805;29;20232;-85
2022/08/23 05:24:18;;;;;;;7.55;4.00;;;17.70;99.90;;;;;;10114236;29;20247;-85
2022/08/23 05:29:22;;;;;;;6.25;4.10;;;17.70;99.90;;;;;;10127868;29;20244;-85
2022/08/23 05:34:25;;;;;;;4.35;3.80;;;17.70;99.90;;;;;;10126054;29;20264;-85
2022/08/23 05:39:30;;;;;;;8.60;4.20;;;17.70;99.90;;;;;;10119671;29;20260;-85
2022/08/23 05:44:44;;;;;;;5.20;4.65;;;17.80;99.90;;;;;;10126992;29;20651;-85
2022/08/23 05:49:46;;;;;;;7.93;4.85;;;17.90;99.90;;;;;;10122954;29;20351;-85
2022/08/23 05:54:49;;;;;;;4.55;3.88;;;18.10;99.90;;;;;;10128195;29;20268;-85
2022/08/23 06:00:21;;;;;;;10.35;5.25;;;18.20;99.90;;;;;;10129120;29;20212;-85
2022/08/23 06:05:40;;;;;;;5.75;4.45;;;18.30;99.90;;;;;;10126583;29;20227;-85
2022/08/23 06:10:43;;;;;;;5.10;4.57;;;18.40;99.90;;;;;;10130825;29;20212;-85
2022/08/23 06:16:00;;;;;;;6.95;5.57;;;18.70;99.90;;;;;;10134715;29;20645;-85
2022/08/23 06:21:17;;;;;;;7.47;5.05;;;18.80;99.90;;;;;;10131018;29;20299;-84
2022/08/23 06:26:30;;;;;;;8.63;5.38;;;19.20;99.90;;;;;;10133992;29;20299;-84
2022/08/23 06:31:46;;;;;;;10.73;5.80;;;19.30;99.90;;;;;;10134795;29;20679;-85
2022/08/23 06:37:13;;;;;;;5.95;4.97;;;19.30;99.90;;;;;;10164025;29;20762;-85
2022/08/23 06:42:38;;;;;;;5.53;4.88;;;19.40;99.90;;;;;;10184627;29;20612;-86
2022/08/23 06:47:42;;;;;;;11.00;6.47;;;19.40;99.90;;;;;;10179766;29;20267;-85
2022/08/23 06:52:49;;;;;;;10.30;5.88;;;19.40;99.90;;;;;;10159063;29;20211;-84
2022/08/23 06:58:24;;;;;;;11.98;6.68;;;19.50;99.90;;;;;;10159672;29;20242;-84
2022/08/23 07:03:46;;;;;;;6.80;5.80;;;19.50;99.90;;;;;;10191760;29;20241;-84
2022/08/23 07:09:21;;;;;;;12.27;6.90;;;19.70;99.90;;;;;;10104860;29;20248;-86
2022/08/23 07:14:25;;;;;;;9.23;6.18;;;19.60;99.90;;;;;;10089171;29;20300;-85
2022/08/23 07:19:32;;;;;;;8.02;6.88;;;19.40;99.90;;;;;;10090208;29;20277;-85
2022/08/23 07:24:34;;;;;;;8.05;7.03;;;19.40;99.90;;;;;;10090563;29;20277;-85
2022/08/23 07:29:39;;;;;;;8.95;6.53;;;19.40;99.90;;;;;;10089147;29;20717;-85
2022/08/23 07:34:42;;;;;;;10.63;6.07;;;19.20;99.90;;;;;;10089865;29;20353;-86
2022/08/23 07:39:45;;;;;;;8.73;7.75;;;19.50;99.90;;;;;;10089203;29;20312;-85
2022/08/23 07:44:48;;;;;;;13.27;7.13;;;19.40;99.90;;;;;;10143689;29;20274;-85
2022/08/23 07:49:55;;;;;;;9.85;7.32;;;19.50;99.90;;;;;;10191207;29;20281;-85
2022/08/23 07:54:58;;;;;;;12.80;8.75;;;20.00;99.90;;;;;;10194640;29;20321;-85
2022/08/23 08:00:21;;;;;;;13.80;8.38;;;19.90;99.90;;;;;;10202652;29;20687;-85
2022/08/23 08:05:35;;;;;;;10.45;8.25;;;19.70;99.90;;;;;;10193115;29;20243;-85
2022/08/23 08:10:40;;;;;;;10.40;8.00;;;19.90;99.90;;;;;;10221885;29;20215;-85
2022/08/23 08:15:42;;;;;;;10.88;7.57;;;20.00;99.90;;;;;;10234585;29;20230;-83
2022/08/23 08:20:48;;;;;;;10.90;8.75;;;20.20;99.90;;;;;;10222692;29;20203;-85
2022/08/23 08:26:10;;;;;;;11.30;9.15;;;20.30;99.90;;;;;;10209190;29;20242;-84
2022/08/23 08:31:25;;;;;;;13.73;7.22;;;20.60;99.90;;;;;;10176464;29;20299;-83
2022/08/23 08:36:44;;;;;;;13.30;9.07;;;20.40;99.90;;;;;;10160747;29;20819;-84
2022/08/23 08:42:06;;;;;;;15.43;10.00;;;20.30;99.90;;;;;;10191643;29;20234;-84
2022/08/23 08:47:33;;;;;;;12.52;9.02;;;20.40;99.90;;;;;;10192452;29;20692;-84
2022/08/23 08:52:41;;;;;;;15.02;10.35;;;20.10;99.90;;;;;;10168323;29;20316;-84
2022/08/23 08:57:54;;;;;;;15.10;9.98;;;20.40;99.90;;;;;;10197927;29;20667;-85
2022/08/23 09:02:59;;;;;;;25.70;12.05;;;20.40;99.90;;;;;;10193732;29;20235;-85
2022/08/23 09:08:01;;;;;;;14.32;10.23;;;20.30;99.90;;;;;;10208392;29;20308;-84
2022/08/23 09:13:31;;;;;;;16.42;11.30;;;20.60;99.90;;;;;;10231657;28;20218;-85
2022/08/23 09:18:35;;;;;;;15.25;11.73;;;20.60;99.90;;;;;;10181625;29;20207;-85
2022/08/23 09:23:42;;;;;;;15.32;10.27;;;20.50;99.90;;;;;;10162464;29;20208;-84
2022/08/23 09:28:59;;;;;;;17.33;11.43;;;20.50;99.90;;;;;;10204167;29;20243;-84
2022/08/23 09:34:02;;;;;;;16.88;11.63;;;20.70;99.90;;;;;;10191407;29;20254;-84
2022/08/23 09:39:34;;;;;;;19.70;12.70;;;20.80;99.90;;;;;;10188135;29;20238;-83
2022/08/23 09:44:42;;;;;;;15.68;11.65;;;20.70;99.90;;;;;;10180536;29;20286;-85
2022/08/23 09:49:50;;;;;;;7.45;6.40;;;20.60;99.90;;;;;;10203135;29;20241;-84
2022/08/23 09:54:59;;;;;;;13.63;10.98;;;20.90;99.90;;;;;;9862868;29;10000638;-84
2022/08/23 10:00:16;;;;;;;15.30;10.75;;;20.70;99.90;;;;;;10185675;29;20246;-84
2022/08/23 10:05:39;;;;;;;13.68;10.27;;;20.60;99.90;;;;;;10161735;29;20246;-86
2022/08/23 10:10:53;;;;;;;11.02;7.80;;;20.90;99.90;;;;;;10178349;29;20304;-85
2022/08/23 10:16:22;;;;;;;14.45;10.35;;;21.10;99.90;;;;;;10160829;29;20289;-85
2022/08/23 10:21:34;;;;;;;17.05;11.00;;;20.90;99.90;;;;;;10184960;29;20274;-84
2022/08/23 10:26:51;;;;;;;16.02;11.55;;;20.70;99.90;;;;;;10180196;29;20747;-85
2022/08/23 10:32:14;;;;;;;13.27;11.13;;;20.40;99.90;;;;;;10154046;29;20648;-85
2022/08/23 10:37:45;;;;;;;14.95;11.77;;;20.30;99.90;;;;;;10146884;29;20283;-86
2022/08/23 10:43:09;;;;;;;17.13;13.00;;;20.30;99.90;;;;;;10147376;29;20310;-86
2022/08/23 10:48:28;;;;;;;17.17;12.90;;;20.30;99.90;;;;;;10161857;29;20318;-86
2022/08/23 10:53:45;;;;;;;16.67;12.52;;;20.30;99.90;;;;;;10169252;29;20247;-86
2022/08/23 10:58:55;;;;;;;22.30;13.90;;;20.30;99.90;;;;;;10191397;29;20292;-87
2022/08/23 11:04:15;;;;;;;21.58;14.95;;;20.60;99.90;;;;;;10183182;29;20287;-86
2022/08/23 11:09:46;;;;;;;18.65;13.68;;;20.40;99.90;;;;;;10158946;29;20771;-85
2022/08/23 11:15:08;;;;;;;22.33;15.13;;;20.30;99.90;;;;;;10173495;29;20318;-84
2022/08/23 11:20:49;;;;;;;19.48;15.20;;;20.90;99.90;;;;;;10172115;29;20259;-84
2022/08/23 11:26:04;;;;;;;19.27;15.50;;;21.10;99.90;;;;;;9491890;29;10000237;-84
2022/08/23 11:31:07;;;;;;;19.88;16.35;;;21.40;99.90;;;;;;10154305;29;20639;-84
2022/08/23 11:36:26;;;;;;;27.90;16.25;;;21.60;99.90;;;;;;10156404;29;20326;-84
2022/08/23 11:41:34;;;;;;;23.35;16.65;;;21.80;99.90;;;;;;10170361;29;20290;-84
2022/08/23 11:46:57;;;;;;;23.45;16.33;;;22.10;99.90;;;;;;10172174;29;20756;-84
2022/08/23 11:52:24;;;;;;;23.70;17.92;;;22.00;99.90;;;;;;10155274;29;20294;-84
2022/08/23 11:58:04;;;;;;;21.48;16.23;;;22.10;99.90;;;;;;10155455;29;20263;-84
2022/08/23 12:03:25;;;;;;;14.80;10.57;;;22.30;99.90;;;;;;9839411;29;10000521;-84
2022/08/23 12:08:52;;;;;;;18.35;14.65;;;22.60;99.90;;;;;;10205919;29;20277;-84
2022/08/23 12:14:20;;;;;;;24.83;16.00;;;23.10;99.90;;;;;;10169319;29;20329;-84
2022/08/23 12:19:40;;;;;;;22.98;16.98;;;22.90;99.90;;;;;;10172724;29;20243;-85
2022/08/23 12:24:56;;;;;;;21.38;16.10;;;22.70;99.90;;;;;;9862143;29;10000250;-83
2022/08/23 12:30:05;;;;;;;15.32;13.38;;;23.10;99.90;;;;;;10205570;29;20391;-83
2022/08/23 12:35:44;;;;;;;16.63;14.30;;;23.50;99.90;;;;;;10190552;29;20277;-83
2022/08/23 12:40:50;;;;;;;27.13;16.02;;;24.10;99.90;;;;;;10155102;29;20235;-83
2022/08/23 12:46:01;;;;;;;21.20;15.15;;;23.80;99.90;;;;;;10202516;29;20242;-83
2022/08/23 12:51:10;;;;;;;25.77;14.18;;;24.00;99.90;;;;;;10187802;29;20739;-83
2022/08/23 12:56:18;;;;;;;17.05;14.55;;;24.10;99.90;;;;;;10184103;29;20303;-86
2022/08/23 13:01:26;;;;;;;18.88;15.75;;;24.20;99.90;;;;;;10170842;29;20654;-85
2022/08/23 13:06:47;;;;;;;23.98;14.77;;;23.80;99.90;;;;;;10188707;29;20274;-85
2022/08/23 13:11:51;;;;;;;22.95;15.15;;;23.70;99.90;;;;;;10186654;29;20238;-85
2022/08/23 13:16:54;;;;;;;19.60;14.25;;;24.40;99.90;;;;;;10211042;29;20246;-84
2022/08/23 13:22:19;;;;;;;18.58;16.40;;;24.70;99.90;;;;;;10170785;29;20282;-85
2022/08/23 13:27:25;;;;;;;21.05;15.02;;;24.90;99.90;;;;;;10174418;29;20211;-84
2022/08/23 13:32:34;;;;;;;22.25;15.80;;;25.20;99.90;;;;;;10172566;29;20708;-82
2022/08/23 13:37:45;;;;;;;17.90;15.25;;;25.30;99.90;;;;;;10180887;29;20326;-82
2022/08/23 13:42:52;;;;;;;28.45;15.55;;;24.90;99.90;;;;;;10179149;29;20290;-84
2022/08/23 13:48:09;;;;;;;22.40;14.32;;;24.90;99.90;;;;;;10167281;29;20268;-83
2022/08/23 13:53:12;;;;;;;18.80;13.23;;;24.30;99.90;;;;;;10170229;29;20720;-83
2022/08/23 13:58:32;;;;;;;27.17;13.55;;;24.20;99.90;;;;;;10177958;29;20262;-83
2022/08/23 14:03:35;;;;;;;21.80;15.85;;;24.20;99.90;;;;;;10182370;29;20773;-82
2022/08/23 14:08:37;;;;;;;18.95;14.68;;;24.10;99.90;;;;;;10190027;29;20278;-82
2022/08/23 14:13:42;;;;;;;20.00;14.80;;;24.50;99.90;;;;;;10196797;29;20247;-83
2022/08/23 14:18:44;;;;;;;17.17;12.68;;;24.60;99.90;;;;;;10167396;29;20662;-84
2022/08/23 14:24:07;;;;;;;27.48;18.30;;;24.50;99.90;;;;;;10182224;29;20246;-84
2022/08/23 14:29:10;;;;;;;19.33;12.13;;;24.20;99.90;;;;;;10175707;29;20218;-84
2022/08/23 14:34:16;;;;;;;21.45;13.10;;;24.20;99.90;;;;;;10164613;29;20243;-83
2022/08/23 14:39:20;;;;;;;21.20;13.93;;;24.60;99.90;;;;;;10162825;29;20315;-84
2022/08/23 14:44:22;;;;;;;22.17;17.13;;;24.40;99.90;;;;;;10250830;28;20637;-85
2022/08/23 14:49:25;;;;;;;21.50;16.52;;;24.30;99.90;;;;;;10213803;29;20235;-85
2022/08/23 14:54:28;;;;;;;23.92;13.52;;;24.40;99.90;;;;;;10197116;29;20286;-85
2022/08/23 14:59:30;;;;;;;23.35;15.70;;;24.20;99.90;;;;;;10177922;29;20267;-84
2022/08/23 15:04:33;;;;;;;18.65;13.07;;;24.00;99.90;;;;;;10199906;29;20232;-83
2022/08/23 15:09:36;;;;;;;20.58;16.35;;;24.20;99.90;;;;;;10168922;29;20294;-85
2022/08/23 15:14:39;;;;;;;20.80;12.93;;;24.10;99.90;;;;;;10167798;29;20243;-84
2022/08/23 15:19:42;;;;;;;21.80;13.40;;;24.00;99.90;;;;;;10173233;29;20326;-84
2022/08/23 15:24:44;;;;;;;20.70;16.17;;;23.80;99.90;;;;;;10197071;29;20227;-83
2022/08/23 15:29:47;;;;;;;26.48;13.82;;;23.90;99.90;;;;;;10196152;29;20674;-83
2022/08/23 15:34:50;;;;;;;15.88;13.02;;;24.10;99.90;;;;;;10196461;29;20227;-83
2022/08/23 15:39:53;;;;;;;30.70;20.00;;;24.20;99.90;;;;;;10174679;29;20307;-83
2022/08/23 15:44:55;;;;;;;16.23;12.88;;;24.20;99.90;;;;;;10161576;29;20246;-84
2022/08/23 15:49:58;;;;;;;29.20;20.83;;;24.40;99.90;;;;;;10192236;29;20234;-84
2022/08/23 15:55:02;;;;;;;21.83;12.82;;;24.50;99.90;;;;;;10211271;29;20294;-84
2022/08/23 16:00:06;;;;;;;22.40;12.65;;;23.80;99.90;;;;;;10181973;29;20678;-84
2022/08/23 16:05:14;;;;;;;21.77;14.40;;;23.40;99.90;;;;;;10220844;29;20231;-84
2022/08/23 16:10:17;;;;;;;22.40;12.10;;;23.40;99.90;;;;;;10172704;29;20681;-84
2022/08/23 16:15:20;;;;;;;20.33;13.55;;;23.40;99.90;;;;;;10184245;29;20619;-84
2022/08/23 16:20:22;;;;;;;15.43;11.52;;;23.40;99.90;;;;;;10196048;29;20220;-84
2022/08/23 16:25:25;;;;;;;20.52;12.48;;;23.30;99.90;;;;;;10159855;29;20230;-84
2022/08/23 16:30:27;;;;;;;21.73;16.73;;;23.50;99.90;;;;;;10167317;29;20228;-87
2022/08/23 16:35:30;;;;;;;21.38;15.18;;;23.30;99.90;;;;;;10171522;29;20255;-88
2022/08/23 16:40:33;;;;;;;22.95;12.57;;;23.40;99.90;;;;;;10178807;29;20303;-87
2022/08/23 16:45:35;;;;;;;19.90;13.68;;;23.40;99.90;;;;;;10179572;29;20239;-88
2022/08/23 16:50:38;;;;;;;18.67;11.82;;;23.40;99.90;;;;;;10172500;29;20314;-85
2022/08/23 16:55:40;;;;;;;23.95;20.15;;;23.40;99.90;;;;;;10169981;29;20271;-86
2022/08/23 17:00:43;;;;;;;22.13;13.05;;;23.40;99.90;;;;;;10163236;29;20243;-85
2022/08/23 17:05:47;;;;;;;22.77;13.85;;;23.20;99.90;;;;;;10185215;29;20250;-88
2022/08/23 17:10:49;;;;;;;20.52;13.25;;;23.10;99.90;;;;;;10172664;29;20699;-87
2022/08/23 17:15:52;;;;;;;22.73;13.57;;;22.90;99.90;;;;;;10173357;29;20697;-87
2022/08/23 17:20:55;;;;;;;23.80;13.75;;;22.90;99.90;;;;;;10179796;29;20239;-86
2022/08/23 17:25:57;;;;;;;20.95;13.82;;;22.80;99.90;;;;;;10160434;29;20294;-86
2022/08/23 17:31:00;;;;;;;20.42;12.13;;;23.10;99.90;;;;;;10205350;29;20684;-87
2022/08/23 17:36:03;;;;;;;21.02;14.13;;;22.90;99.90;;;;;;10181941;29;20267;-87
2022/08/23 17:41:06;;;;;;;22.90;14.77;;;22.90;99.90;;;;;;10177157;29;20622;-87
2022/08/23 17:46:08;;;;;;;38.90;24.98;;;23.10;99.90;;;;;;10173454;29;21067;-87
2022/08/23 17:51:11;;;;;;;31.17;22.73;;;23.20;99.90;;;;;;10159080;29;20271;-88
2022/08/23 17:56:14;;;;;;;28.48;23.85;;;23.00;99.90;;;;;;10192934;29;20258;-88
2022/08/23 18:01:17;;;;;;;22.42;15.75;;;23.30;99.90;;;;;;10180540;29;20669;-87
2022/08/23 18:06:19;;;;;;;29.48;22.58;;;23.60;99.90;;;;;;10154086;29;20303;-87
2022/08/23 18:11:22;;;;;;;27.30;21.38;;;23.70;99.90;;;;;;10158148;29;20656;-84
2022/08/23 18:16:28;;;;;;;19.80;11.40;;;23.50;99.90;;;;;;10171668;29;20309;-85
2022/08/23 18:21:38;;;;;;;22.20;17.48;;;23.10;99.90;;;;;;10215771;29;20297;-85
2022/08/23 18:32:06;;;;;;;31.33;24.15;;;23.10;99.90;;;;;;10213387;29;20642;-85
2022/08/23 18:37:15;;;;;;;28.48;22.77;;;23.30;99.90;;;;;;10179688;29;20315;-86
2022/08/23 18:42:18;;;;;;;27.98;22.55;;;23.60;99.90;;;;;;10191346;29;20986;-85
2022/08/23 18:47:22;;;;;;;17.70;12.02;;;24.00;99.90;;;;;;10207563;29;20286;-85
2022/08/23 18:52:26;;;;;;;24.67;14.38;;;23.40;99.90;;;;;;10194058;29;20302;-84
2022/08/23 18:57:32;;;;;;;24.83;15.68;;;22.10;99.90;;;;;;10158035;29;20259;-85
2022/08/23 19:02:34;;;;;;;19.27;14.82;;;21.80;99.90;;;;;;10181335;29;20234;-85
2022/08/23 19:07:37;;;;;;;26.92;18.30;;;21.60;99.90;;;;;;10189945;29;20287;-85
2022/08/23 19:12:39;;;;;;;29.00;22.52;;;21.40;99.90;;;;;;10175172;29;20220;-86
2022/08/23 19:17:58;;;;;;;24.63;16.40;;;21.60;99.90;;;;;;10195282;29;20308;-87
2022/08/23 19:23:01;;;;;;;21.13;14.52;;;21.60;99.90;;;;;;10160541;29;20231;-85
2022/08/23 19:28:04;;;;;;;25.63;17.52;;;21.50;99.90;;;;;;10194699;29;20250;-86
2022/08/23 19:33:07;;;;;;;26.73;22.80;;;21.70;99.90;;;;;;10155556;29;20293;-86
2022/08/23 19:38:12;;;;;;;34.72;23.83;;;22.60;99.90;;;;;;9828181;29;9999944;-86
2022/08/23 19:43:16;;;;;;;29.25;17.35;;;22.80;99.90;;;;;;10208102;29;20294;-86
2022/08/23 19:48:19;;;;;;;26.90;19.88;;;22.20;99.90;;;;;;10202407;29;20235;-85
2022/08/23 19:53:22;;;;;;;28.05;22.33;;;22.00;99.90;;;;;;10190591;29;20246;-84
2022/08/23 19:58:24;;;;;;;20.88;16.67;;;22.60;99.90;;;;;;10180002;29;20334;-85
2022/08/23 20:03:27;;;;;;;29.98;22.95;;;22.20;99.90;;;;;;10150375;29;20654;-85
2022/08/23 20:08:30;;;;;;;27.52;15.05;;;22.50;99.90;;;;;;10145088;29;20247;-85
2022/08/23 20:13:33;;;;;;;23.90;12.95;;;22.30;99.90;;;;;;10168370;29;20243;-85
2022/08/23 20:18:35;;;;;;;17.75;12.15;;;21.80;99.90;;;;;;10151064;29;20263;-85
2022/08/23 20:29:00;;;;;;;18.67;11.60;;;21.30;99.90;;;;;;10171039;29;20355;-85
2022/08/23 20:34:04;;;;;;;28.63;21.00;;;21.20;99.90;;;;;;10190342;29;20297;-85
2022/08/23 20:39:07;;;;;;;20.05;14.32;;;21.00;99.90;;;;;;10204164;29;20337;-85
2022/08/23 20:44:10;;;;;;;20.55;13.10;;;21.20;99.90;;;;;;10149743;29;20239;-85
2022/08/23 20:49:13;;;;;;;13.25;10.95;;;21.30;99.90;;;;;;10166805;29;20716;-85
2022/08/23 20:54:16;;;;;;;19.00;11.98;;;21.20;99.90;;;;;;10166436;29;20231;-85
2022/08/23 20:59:19;;;;;;;16.95;12.95;;;21.10;99.90;;;;;;10197131;29;20727;-85
2022/08/23 21:04:21;;;;;;;17.33;12.13;;;20.80;99.90;;;;;;10171422;29;20231;-85
2022/08/23 21:09:32;;;;;;;22.95;12.77;;;20.80;99.90;;;;;;10189316;29;20266;-86
2022/08/23 21:14:34;;;;;;;18.27;10.63;;;20.60;99.90;;;;;;10201380;29;20302;-87
2022/08/23 21:19:37;;;;;;;16.42;10.02;;;21.10;99.90;;;;;;10173550;29;20254;-86
2022/08/23 21:24:40;;;;;;;20.00;11.73;;;21.00;99.90;;;;;;10175616;29;20313;-86
2022/08/23 21:29:44;;;;;;;12.10;10.65;;;20.80;99.90;;;;;;10207880;28;21441;-86
2022/08/23 21:34:47;;;;;;;18.48;10.57;;;20.70;99.90;;;;;;10168221;29;20236;-86
2022/08/23 21:39:49;;;;;;;17.13;12.50;;;21.30;99.90;;;;;;10133610;29;20310;-86
2022/08/23 21:44:52;;;;;;;47.20;14.48;;;20.40;99.90;;;;;;10174735;29;20242;-86
2022/08/23 21:49:54;;;;;;;17.50;9.70;;;21.10;99.90;;;;;;10206877;29;20211;-84
2022/08/23 21:54:57;;;;;;;31.85;13.55;;;21.70;99.90;;;;;;10175147;29;20265;-88
2022/08/23 22:00:00;;;;;;;13.90;10.38;;;22.20;99.90;;;;;;10142480;29;20255;-87
2022/08/23 22:05:03;;;;;;;25.20;11.38;;;21.80;99.90;;;;;;10129940;29;20235;-88
2022/08/23 22:10:08;;;;;;;17.13;9.45;;;21.90;99.90;;;;;;10127814;29;20208;-88
2022/08/23 22:15:10;;;;;;;26.40;11.80;;;22.10;99.90;;;;;;10153361;29;20243;-89
2022/08/23 22:20:13;;;;;;;23.05;10.95;;;22.00;99.90;;;;;;10167226;29;20326;-87
2022/08/23 22:25:16;;;;;;;14.68;9.32;;;22.70;99.90;;;;;;10169388;29;20294;-88
2022/08/23 22:30:19;;;;;;;15.45;9.73;;;22.20;99.90;;;;;;10161876;29;20247;-88
2022/08/23 22:35:21;;;;;;;17.25;10.00;;;21.30;99.90;;;;;;10133568;29;20240;-86
2022/08/23 22:40:24;;;;;;;12.85;10.77;;;20.70;99.90;;;;;;10187910;29;20347;-87
2022/08/23 22:45:27;;;;;;;15.30;10.82;;;20.40;99.90;;;;;;10178116;29;20235;-87
2022/08/23 22:50:30;;;;;;;16.63;10.90;;;20.20;99.90;;;;;;10169929;29;20279;-87
2022/08/23 22:55:33;;;;;;;16.13;10.50;;;21.50;99.90;;;;;;10174856;29;20650;-87
2022/08/23 23:00:41;;;;;;;12.32;9.57;;;21.50;99.90;;;;;;10183024;29;20325;-87
2022/08/23 23:05:43;;;;;;;11.27;9.93;;;20.50;99.90;;;;;;10180757;29;20271;-87
2022/08/23 23:10:46;;;;;;;15.13;10.65;;;20.10;99.90;;;;;;10173757;29;20661;-88
2022/08/23 23:15:50;;;;;;;13.32;10.07;;;20.90;99.90;;;;;;10183164;29;20611;-88
2022/08/23 23:20:57;;;;;;;16.70;10.82;;;21.20;99.90;;;;;;10157391;29;20266;-87
2022/08/23 23:25:59;;;;;;;17.90;11.40;;;20.30;99.90;;;;;;10213677;29;20231;-87
2022/08/23 23:31:03;;;;;;;20.83;12.02;;;19.90;99.90;;;;;;10196857;29;20291;-87
2022/08/23 23:36:06;;;;;;;13.00;10.55;;;20.00;99.90;;;;;;10158002;29;20267;-87
2022/08/23 23:41:18;;;;;;;20.58;12.18;;;19.90;99.90;;;;;;10185978;29;20255;-85
2022/08/23 23:46:22;;;;;;;18.15;11.88;;;19.90;99.90;;;;;;10201972;29;20242;-85
2022/08/23 23:51:29;;;;;;;13.63;11.48;;;19.40;99.90;;;;;;10173421;29;20799;-85
2022/08/23 23:56:31;;;;;;;19.77;11.82;;;19.20;99.90;;;;;;10169711;29;20291;-85
